sensor_id;sensor_type;location;lat;lon;timestamp;P1;durP1;ratioP1;P2;durP2;ratioP2
5483;SDS011;2764;48.794;8.326;2023-02-03T00:00:25;7.03;;;2.20;;
5483;SDS011;2764;48.794;8.326;2023-02-03T00:01:29;5.00;;;2.30;;
5483;SDS011;2764;48.794;8.326;2023-02-03T00:02:30;6.30;;;2.30;;
5483;SDS011;2764;48.794;8.326;2023-02-03T00:03:32;8.05;;;2.15;;
5483;SDS011;2764;48.794;8.326;2023-02-03T00:04:34;3.53;;;2.20;;
5483;SDS011;2764;48.794;8.326;2023-02-03T00:05:36;7.32;;;3.15;;
5483;SDS011;2764;48.794;8.326;2023-02-03T00:06:37;4.60;;;2.05;;
5483;SDS011;2764;48.794;8.326;2023-02-03T00:07:40;5.93;;;3.15;;
5483;SDS011;2764;48.794;8.326;2023-02-03T00:08:42;3.35;;;2.47;;
5483;SDS011;2764;48.794;8.326;2023-02-03T00:09:44;3.75;;;2.42;;
5483;SDS011;2764;48.794;8.326;2023-02-03T00:10:48;3.85;;;2.47;;
5483;SDS011;2764;48.794;8.326;2023-02-03T00:11:49;4.43;;;2.30;;
5483;SDS011;2764;48.794;8.326;2023-02-03T00:12:51;3.33;;;2.50;;
5483;SDS011;2764;48.794;8.326;2023-02-03T00:13:54;4.57;;;2.83;;
5483;SDS011;2764;48.794;8.326;2023-02-03T00:14:55;5.45;;;2.85;;
5483;SDS011;2764;48.794;8.326;2023-02-03T00:15:57;2.58;;;2.25;;
5483;SDS011;2764;48.794;8.326;2023-02-03T00:17:01;4.10;;;2.83;;
5483;SDS011;2764;48.794;8.326;2023-02-03T00:18:03;4.38;;;2.30;;
5483;SDS011;2764;48.794;8.326;2023-02-03T00:19:05;5.40;;;2.30;;
5483;SDS011;2764;48.794;8.326;2023-02-03T00:20:07;2.72;;;2.28;;
5483;SDS011;2764;48.794;8.326;2023-02-03T00:21:10;4.60;;;2.60;;
5483;SDS011;2764;48.794;8.326;2023-02-03T00:22:12;5.95;;;2.50;;
5483;SDS011;2764;48.794;8.326;2023-02-03T00:23:13;9.95;;;2.33;;
5483;SDS011;2764;48.794;8.326;2023-02-03T00:24:15;4.22;;;2.50;;
5483;SDS011;2764;48.794;8.326;2023-02-03T00:25:19;3.75;;;2.33;;
5483;SDS011;2764;48.794;8.326;2023-02-03T00:26:21;5.20;;;2.60;;
5483;SDS011;2764;48.794;8.326;2023-02-03T00:27:25;3.25;;;2.55;;
5483;SDS011;2764;48.794;8.326;2023-02-03T00:28:27;2.90;;;2.20;;
5483;SDS011;2764;48.794;8.326;2023-02-03T00:29:32;3.95;;;2.38;;
5483;SDS011;2764;48.794;8.326;2023-02-03T00:30:34;6.93;;;2.33;;
5483;SDS011;2764;48.794;8.326;2023-02-03T00:31:36;6.82;;;2.30;;
5483;SDS011;2764;48.794;8.326;2023-02-03T00:32:38;3.95;;;2.05;;
5483;SDS011;2764;48.794;8.326;2023-02-03T00:33:40;2.65;;;2.08;;
5483;SDS011;2764;48.794;8.326;2023-02-03T00:34:42;3.17;;;2.10;;
5483;SDS011;2764;48.794;8.326;2023-02-03T00:35:43;5.97;;;2.42;;
5483;SDS011;2764;48.794;8.326;2023-02-03T00:36:45;3.28;;;2.30;;
5483;SDS011;2764;48.794;8.326;2023-02-03T00:37:51;4.10;;;1.80;;
5483;SDS011;2764;48.794;8.326;2023-02-03T00:38:54;9.13;;;2.80;;
5483;SDS011;2764;48.794;8.326;2023-02-03T00:39:56;6.15;;;2.28;;
5483;SDS011;2764;48.794;8.326;2023-02-03T00:40:58;4.28;;;2.47;;
5483;SDS011;2764;48.794;8.326;2023-02-03T00:41:59;2.55;;;2.35;;
5483;SDS011;2764;48.794;8.326;2023-02-03T00:43:01;2.88;;;1.98;;
5483;SDS011;2764;48.794;8.326;2023-02-03T00:44:03;5.82;;;2.17;;
5483;SDS011;2764;48.794;8.326;2023-02-03T00:45:05;2.65;;;1.75;;
5483;SDS011;2764;48.794;8.326;2023-02-03T00:46:07;3.78;;;2.20;;
5483;SDS011;2764;48.794;8.326;2023-02-03T00:47:09;6.88;;;2.20;;
5483;SDS011;2764;48.794;8.326;2023-02-03T00:48:10;4.18;;;2.08;;
5483;SDS011;2764;48.794;8.326;2023-02-03T00:49:12;2.35;;;2.10;;
5483;SDS011;2764;48.794;8.326;2023-02-03T00:50:14;5.18;;;1.73;;
5483;SDS011;2764;48.794;8.326;2023-02-03T00:51:16;2.22;;;2.03;;
5483;SDS011;2764;48.794;8.326;2023-02-03T00:52:18;7.32;;;1.83;;
5483;SDS011;2764;48.794;8.326;2023-02-03T00:53:19;2.00;;;1.90;;
5483;SDS011;2764;48.794;8.326;2023-02-03T00:54:21;3.35;;;1.83;;
5483;SDS011;2764;48.794;8.326;2023-02-03T00:55:26;3.42;;;2.10;;
5483;SDS011;2764;48.794;8.326;2023-02-03T00:56:28;4.20;;;1.70;;
5483;SDS011;2764;48.794;8.326;2023-02-03T00:57:29;6.70;;;2.53;;
5483;SDS011;2764;48.794;8.326;2023-02-03T00:58:31;5.55;;;2.53;;
5483;SDS011;2764;48.794;8.326;2023-02-03T00:59:32;3.75;;;2.67;;
5483;SDS011;2764;48.794;8.326;2023-02-03T01:00:34;4.53;;;1.67;;
5483;SDS011;2764;48.794;8.326;2023-02-03T01:01:36;4.70;;;1.95;;
5483;SDS011;2764;48.794;8.326;2023-02-03T01:02:38;4.78;;;1.75;;
5483;SDS011;2764;48.794;8.326;2023-02-03T01:03:40;3.83;;;2.00;;
5483;SDS011;2764;48.794;8.326;2023-02-03T01:04:42;3.20;;;1.55;;
5483;SDS011;2764;48.794;8.326;2023-02-03T01:05:44;2.65;;;1.73;;
5483;SDS011;2764;48.794;8.326;2023-02-03T01:06:45;3.55;;;2.05;;
5483;SDS011;2764;48.794;8.326;2023-02-03T01:07:47;3.03;;;2.33;;
5483;SDS011;2764;48.794;8.326;2023-02-03T01:08:49;2.33;;;1.67;;
5483;SDS011;2764;48.794;8.326;2023-02-03T01:09:51;2.08;;;1.60;;
5483;SDS011;2764;48.794;8.326;2023-02-03T01:10:52;8.73;;;2.00;;
5483;SDS011;2764;48.794;8.326;2023-02-03T01:11:54;3.30;;;1.95;;
5483;SDS011;2764;48.794;8.326;2023-02-03T01:12:56;3.40;;;1.83;;
5483;SDS011;2764;48.794;8.326;2023-02-03T01:13:57;2.10;;;1.90;;
5483;SDS011;2764;48.794;8.326;2023-02-03T01:15:02;3.70;;;1.42;;
5483;SDS011;2764;48.794;8.326;2023-02-03T01:16:11;6.38;;;2.17;;
5483;SDS011;2764;48.794;8.326;2023-02-03T01:17:14;4.15;;;1.60;;
5483;SDS011;2764;48.794;8.326;2023-02-03T01:18:16;3.50;;;2.00;;
5483;SDS011;2764;48.794;8.326;2023-02-03T01:19:18;5.25;;;2.10;;
5483;SDS011;2764;48.794;8.326;2023-02-03T01:20:19;1.98;;;1.60;;
5483;SDS011;2764;48.794;8.326;2023-02-03T01:21:23;3.53;;;1.80;;
5483;SDS011;2764;48.794;8.326;2023-02-03T01:22:28;6.05;;;1.83;;
5483;SDS011;2764;48.794;8.326;2023-02-03T01:23:30;2.88;;;1.63;;
5483;SDS011;2764;48.794;8.326;2023-02-03T01:24:32;5.28;;;1.70;;
5483;SDS011;2764;48.794;8.326;2023-02-03T01:25:34;3.55;;;2.03;;
5483;SDS011;2764;48.794;8.326;2023-02-03T01:26:36;3.25;;;1.80;;
5483;SDS011;2764;48.794;8.326;2023-02-03T01:27:38;2.53;;;1.50;;
5483;SDS011;2764;48.794;8.326;2023-02-03T01:28:39;4.80;;;1.90;;
5483;SDS011;2764;48.794;8.326;2023-02-03T01:29:41;5.05;;;1.80;;
5483;SDS011;2764;48.794;8.326;2023-02-03T01:30:43;2.72;;;1.98;;
5483;SDS011;2764;48.794;8.326;2023-02-03T01:31:45;1.80;;;1.70;;
5483;SDS011;2764;48.794;8.326;2023-02-03T01:32:47;6.32;;;1.90;;
5483;SDS011;2764;48.794;8.326;2023-02-03T01:33:49;3.20;;;1.73;;
5483;SDS011;2764;48.794;8.326;2023-02-03T01:34:52;5.65;;;1.60;;
5483;SDS011;2764;48.794;8.326;2023-02-03T01:35:54;3.65;;;1.75;;
5483;SDS011;2764;48.794;8.326;2023-02-03T01:36:56;3.97;;;1.73;;
5483;SDS011;2764;48.794;8.326;2023-02-03T01:37:57;3.20;;;2.13;;
5483;SDS011;2764;48.794;8.326;2023-02-03T01:39:00;3.67;;;1.83;;
5483;SDS011;2764;48.794;8.326;2023-02-03T01:40:02;3.22;;;1.55;;
5483;SDS011;2764;48.794;8.326;2023-02-03T01:41:05;4.13;;;1.75;;
5483;SDS011;2764;48.794;8.326;2023-02-03T01:42:13;2.08;;;1.95;;
5483;SDS011;2764;48.794;8.326;2023-02-03T01:43:32;3.63;;;2.00;;
5483;SDS011;2764;48.794;8.326;2023-02-03T01:44:39;2.15;;;1.90;;
5483;SDS011;2764;48.794;8.326;2023-02-03T01:45:41;1.90;;;1.80;;
5483;SDS011;2764;48.794;8.326;2023-02-03T01:46:44;4.53;;;1.50;;
5483;SDS011;2764;48.794;8.326;2023-02-03T01:47:51;4.57;;;1.83;;
5483;SDS011;2764;48.794;8.326;2023-02-03T01:49:07;3.85;;;1.63;;
5483;SDS011;2764;48.794;8.326;2023-02-03T01:50:25;1.45;;;1.35;;
5483;SDS011;2764;48.794;8.326;2023-02-03T01:51:33;2.15;;;1.50;;
5483;SDS011;2764;48.794;8.326;2023-02-03T01:52:36;3.42;;;1.30;;
5483;SDS011;2764;48.794;8.326;2023-02-03T01:53:41;3.72;;;1.58;;
5483;SDS011;2764;48.794;8.326;2023-02-03T01:54:43;2.65;;;1.70;;
5483;SDS011;2764;48.794;8.326;2023-02-03T01:55:47;1.60;;;1.50;;
5483;SDS011;2764;48.794;8.326;2023-02-03T01:56:54;2.78;;;1.70;;
5483;SDS011;2764;48.794;8.326;2023-02-03T01:58:05;1.52;;;1.42;;
5483;SDS011;2764;48.794;8.326;2023-02-03T01:59:10;2.15;;;1.70;;
5483;SDS011;2764;48.794;8.326;2023-02-03T02:00:13;1.95;;;1.70;;
5483;SDS011;2764;48.794;8.326;2023-02-03T02:01:15;1.92;;;1.70;;
5483;SDS011;2764;48.794;8.326;2023-02-03T02:02:19;3.80;;;1.90;;
5483;SDS011;2764;48.794;8.326;2023-02-03T02:03:23;5.45;;;1.85;;
5483;SDS011;2764;48.794;8.326;2023-02-03T02:04:31;2.95;;;1.80;;
5483;SDS011;2764;48.794;8.326;2023-02-03T02:05:41;2.05;;;1.95;;
5483;SDS011;2764;48.794;8.326;2023-02-03T02:06:49;3.42;;;1.30;;
5483;SDS011;2764;48.794;8.326;2023-02-03T02:07:52;2.90;;;1.52;;
5483;SDS011;2764;48.794;8.326;2023-02-03T02:08:55;3.55;;;1.90;;
5483;SDS011;2764;48.794;8.326;2023-02-03T02:10:01;2.58;;;2.38;;
5483;SDS011;2764;48.794;8.326;2023-02-03T02:11:02;4.55;;;1.70;;
5483;SDS011;2764;48.794;8.326;2023-02-03T02:12:05;3.88;;;1.95;;
5483;SDS011;2764;48.794;8.326;2023-02-03T02:13:07;2.60;;;1.83;;
5483;SDS011;2764;48.794;8.326;2023-02-03T02:14:09;3.30;;;1.80;;
5483;SDS011;2764;48.794;8.326;2023-02-03T02:15:11;4.07;;;1.80;;
5483;SDS011;2764;48.794;8.326;2023-02-03T02:19:17;1.65;;;1.40;;
5483;SDS011;2764;48.794;8.326;2023-02-03T02:22:13;3.58;;;1.90;;
5483;SDS011;2764;48.794;8.326;2023-02-03T02:29:18;3.03;;;2.03;;
5483;SDS011;2764;48.794;8.326;2023-02-03T02:33:17;1.90;;;1.58;;
5483;SDS011;2764;48.794;8.326;2023-02-03T02:36:42;1.60;;;1.50;;
5483;SDS011;2764;48.794;8.326;2023-02-03T02:37:58;3.05;;;1.60;;
5483;SDS011;2764;48.794;8.326;2023-02-03T02:40:50;2.97;;;1.45;;
5483;SDS011;2764;48.794;8.326;2023-02-03T02:44:38;4.65;;;1.60;;
5483;SDS011;2764;48.794;8.326;2023-02-03T02:45:48;5.07;;;2.15;;
5483;SDS011;2764;48.794;8.326;2023-02-03T02:46:53;3.22;;;2.25;;
5483;SDS011;2764;48.794;8.326;2023-02-03T02:48:04;1.63;;;1.50;;
5483;SDS011;2764;48.794;8.326;2023-02-03T02:50:34;2.20;;;1.52;;
5483;SDS011;2764;48.794;8.326;2023-02-03T02:51:42;1.30;;;1.20;;
5483;SDS011;2764;48.794;8.326;2023-02-03T02:52:45;2.28;;;1.60;;
5483;SDS011;2764;48.794;8.326;2023-02-03T02:53:53;4.38;;;2.00;;
5483;SDS011;2764;48.794;8.326;2023-02-03T02:55:00;3.40;;;1.90;;
5483;SDS011;2764;48.794;8.326;2023-02-03T02:56:08;6.55;;;1.90;;
5483;SDS011;2764;48.794;8.326;2023-02-03T02:57:16;4.35;;;1.63;;
5483;SDS011;2764;48.794;8.326;2023-02-03T02:58:20;4.10;;;1.45;;
5483;SDS011;2764;48.794;8.326;2023-02-03T02:59:23;1.60;;;1.50;;
5483;SDS011;2764;48.794;8.326;2023-02-03T03:00:29;3.17;;;1.67;;
5483;SDS011;2764;48.794;8.326;2023-02-03T03:01:31;2.17;;;1.40;;
5483;SDS011;2764;48.794;8.326;2023-02-03T03:02:34;1.77;;;1.70;;
5483;SDS011;2764;48.794;8.326;2023-02-03T03:03:37;1.80;;;1.30;;
5483;SDS011;2764;48.794;8.326;2023-02-03T03:04:41;3.10;;;1.60;;
5483;SDS011;2764;48.794;8.326;2023-02-03T03:05:49;1.60;;;1.50;;
5483;SDS011;2764;48.794;8.326;2023-02-03T03:08:35;1.45;;;1.35;;
5483;SDS011;2764;48.794;8.326;2023-02-03T03:09:43;1.50;;;1.40;;
5483;SDS011;2764;48.794;8.326;2023-02-03T03:10:50;1.65;;;1.10;;
5483;SDS011;2764;48.794;8.326;2023-02-03T03:11:57;4.93;;;2.50;;
5483;SDS011;2764;48.794;8.326;2023-02-03T03:13:04;3.80;;;1.52;;
5483;SDS011;2764;48.794;8.326;2023-02-03T03:14:08;3.63;;;1.73;;
5483;SDS011;2764;48.794;8.326;2023-02-03T03:15:16;2.55;;;1.30;;
5483;SDS011;2764;48.794;8.326;2023-02-03T03:16:23;1.70;;;1.60;;
5483;SDS011;2764;48.794;8.326;2023-02-03T03:17:28;2.45;;;1.70;;
5483;SDS011;2764;48.794;8.326;2023-02-03T03:18:34;2.83;;;1.40;;
5483;SDS011;2764;48.794;8.326;2023-02-03T03:19:46;1.88;;;1.50;;
5483;SDS011;2764;48.794;8.326;2023-02-03T03:20:54;2.95;;;1.30;;
5483;SDS011;2764;48.794;8.326;2023-02-03T03:22:00;1.70;;;1.70;;
5483;SDS011;2764;48.794;8.326;2023-02-03T03:23:06;1.63;;;1.40;;
5483;SDS011;2764;48.794;8.326;2023-02-03T03:24:10;2.08;;;1.30;;
5483;SDS011;2764;48.794;8.326;2023-02-03T03:25:17;1.40;;;1.30;;
5483;SDS011;2764;48.794;8.326;2023-02-03T03:26:29;2.58;;;1.50;;
5483;SDS011;2764;48.794;8.326;2023-02-03T03:27:37;3.63;;;1.33;;
5483;SDS011;2764;48.794;8.326;2023-02-03T03:28:48;6.93;;;1.70;;
5483;SDS011;2764;48.794;8.326;2023-02-03T03:29:57;2.90;;;1.38;;
5483;SDS011;2764;48.794;8.326;2023-02-03T03:31:02;1.30;;;1.15;;
5483;SDS011;2764;48.794;8.326;2023-02-03T03:32:05;1.45;;;1.30;;
5483;SDS011;2764;48.794;8.326;2023-02-03T03:33:07;1.88;;;1.65;;
5483;SDS011;2764;48.794;8.326;2023-02-03T03:34:10;3.42;;;1.33;;
5483;SDS011;2764;48.794;8.326;2023-02-03T03:35:13;1.40;;;1.30;;
5483;SDS011;2764;48.794;8.326;2023-02-03T03:37:34;1.98;;;1.30;;
5483;SDS011;2764;48.794;8.326;2023-02-03T03:38:39;1.55;;;1.45;;
5483;SDS011;2764;48.794;8.326;2023-02-03T03:40:52;2.33;;;1.33;;
5483;SDS011;2764;48.794;8.326;2023-02-03T03:43:17;1.38;;;1.27;;
5483;SDS011;2764;48.794;8.326;2023-02-03T03:44:23;0.77;;;0.75;;
5483;SDS011;2764;48.794;8.326;2023-02-03T03:45:33;1.75;;;0.85;;
5483;SDS011;2764;48.794;8.326;2023-02-03T03:46:45;1.08;;;0.73;;
5483;SDS011;2764;48.794;8.326;2023-02-03T03:49:01;0.80;;;0.80;;
5483;SDS011;2764;48.794;8.326;2023-02-03T03:50:06;1.05;;;0.95;;
5483;SDS011;2764;48.794;8.326;2023-02-03T03:51:20;0.80;;;0.80;;
5483;SDS011;2764;48.794;8.326;2023-02-03T03:52:28;1.98;;;1.50;;
5483;SDS011;2764;48.794;8.326;2023-02-03T03:53:35;6.50;;;1.00;;
5483;SDS011;2764;48.794;8.326;2023-02-03T03:54:40;2.90;;;1.05;;
5483;SDS011;2764;48.794;8.326;2023-02-03T03:55:44;1.67;;;1.30;;
5483;SDS011;2764;48.794;8.326;2023-02-03T03:57:59;1.42;;;0.95;;
5483;SDS011;2764;48.794;8.326;2023-02-03T03:59:04;7.15;;;1.10;;
5483;SDS011;2764;48.794;8.326;2023-02-03T04:00:12;0.98;;;0.95;;
5483;SDS011;2764;48.794;8.326;2023-02-03T04:01:17;0.80;;;0.80;;
5483;SDS011;2764;48.794;8.326;2023-02-03T04:02:21;3.20;;;0.82;;
5483;SDS011;2764;48.794;8.326;2023-02-03T04:03:24;1.60;;;0.80;;
5483;SDS011;2764;48.794;8.326;2023-02-03T04:04:48;1.42;;;0.98;;
5483;SDS011;2764;48.794;8.326;2023-02-03T04:05:51;1.60;;;1.50;;
5483;SDS011;2764;48.794;8.326;2023-02-03T04:06:52;3.10;;;1.10;;
5483;SDS011;2764;48.794;8.326;2023-02-03T04:07:55;1.25;;;1.15;;
5483;SDS011;2764;48.794;8.326;2023-02-03T04:08:56;4.03;;;1.40;;
5483;SDS011;2764;48.794;8.326;2023-02-03T04:09:58;2.00;;;1.25;;
5483;SDS011;2764;48.794;8.326;2023-02-03T04:11:00;1.55;;;1.20;;
5483;SDS011;2764;48.794;8.326;2023-02-03T04:12:02;1.00;;;1.00;;
5483;SDS011;2764;48.794;8.326;2023-02-03T04:13:06;1.77;;;0.90;;
5483;SDS011;2764;48.794;8.326;2023-02-03T04:14:09;1.30;;;1.20;;
5483;SDS011;2764;48.794;8.326;2023-02-03T04:15:11;1.30;;;1.20;;
5483;SDS011;2764;48.794;8.326;2023-02-03T04:16:12;1.02;;;1.02;;
5483;SDS011;2764;48.794;8.326;2023-02-03T04:17:14;1.30;;;1.17;;
5483;SDS011;2764;48.794;8.326;2023-02-03T04:18:16;1.45;;;1.27;;
5483;SDS011;2764;48.794;8.326;2023-02-03T04:19:18;1.90;;;1.50;;
5483;SDS011;2764;48.794;8.326;2023-02-03T04:20:19;1.20;;;1.10;;
5483;SDS011;2764;48.794;8.326;2023-02-03T04:21:21;2.95;;;1.05;;
5483;SDS011;2764;48.794;8.326;2023-02-03T04:22:23;0.98;;;0.98;;
5483;SDS011;2764;48.794;8.326;2023-02-03T04:23:25;6.95;;;1.88;;
5483;SDS011;2764;48.794;8.326;2023-02-03T04:24:26;1.40;;;1.30;;
5483;SDS011;2764;48.794;8.326;2023-02-03T04:25:28;1.00;;;0.95;;
5483;SDS011;2764;48.794;8.326;2023-02-03T04:26:30;1.40;;;1.10;;
5483;SDS011;2764;48.794;8.326;2023-02-03T04:27:32;1.88;;;0.98;;
5483;SDS011;2764;48.794;8.326;2023-02-03T04:28:35;1.50;;;0.98;;
5483;SDS011;2764;48.794;8.326;2023-02-03T04:29:36;1.10;;;1.10;;
5483;SDS011;2764;48.794;8.326;2023-02-03T04:30:38;2.60;;;1.20;;
5483;SDS011;2764;48.794;8.326;2023-02-03T04:31:40;1.50;;;1.40;;
5483;SDS011;2764;48.794;8.326;2023-02-03T04:32:41;3.13;;;1.40;;
5483;SDS011;2764;48.794;8.326;2023-02-03T04:33:43;2.95;;;1.13;;
5483;SDS011;2764;48.794;8.326;2023-02-03T04:34:45;1.30;;;1.10;;
5483;SDS011;2764;48.794;8.326;2023-02-03T04:35:47;1.42;;;1.10;;
5483;SDS011;2764;48.794;8.326;2023-02-03T04:36:48;2.78;;;1.13;;
5483;SDS011;2764;48.794;8.326;2023-02-03T04:37:50;1.08;;;0.95;;
5483;SDS011;2764;48.794;8.326;2023-02-03T04:38:52;1.40;;;1.10;;
5483;SDS011;2764;48.794;8.326;2023-02-03T04:39:53;1.30;;;1.15;;
5483;SDS011;2764;48.794;8.326;2023-02-03T04:40:58;2.20;;;1.20;;
5483;SDS011;2764;48.794;8.326;2023-02-03T04:41:59;0.90;;;0.90;;
5483;SDS011;2764;48.794;8.326;2023-02-03T04:43:05;4.13;;;1.73;;
5483;SDS011;2764;48.794;8.326;2023-02-03T04:44:08;2.25;;;1.40;;
5483;SDS011;2764;48.794;8.326;2023-02-03T04:45:10;7.95;;;1.20;;
5483;SDS011;2764;48.794;8.326;2023-02-03T04:46:12;1.17;;;1.17;;
5483;SDS011;2764;48.794;8.326;2023-02-03T04:47:15;3.50;;;1.10;;
5483;SDS011;2764;48.794;8.326;2023-02-03T04:48:17;3.80;;;1.23;;
5483;SDS011;2764;48.794;8.326;2023-02-03T04:49:19;1.08;;;0.98;;
5483;SDS011;2764;48.794;8.326;2023-02-03T04:50:21;1.38;;;1.27;;
5483;SDS011;2764;48.794;8.326;2023-02-03T04:51:22;1.65;;;1.55;;
5483;SDS011;2764;48.794;8.326;2023-02-03T04:52:24;1.27;;;1.10;;
5483;SDS011;2764;48.794;8.326;2023-02-03T04:53:26;1.95;;;1.10;;
5483;SDS011;2764;48.794;8.326;2023-02-03T04:54:27;1.88;;;1.10;;
5483;SDS011;2764;48.794;8.326;2023-02-03T04:55:29;1.98;;;1.00;;
5483;SDS011;2764;48.794;8.326;2023-02-03T04:56:31;1.10;;;1.10;;
5483;SDS011;2764;48.794;8.326;2023-02-03T04:57:32;3.10;;;1.00;;
5483;SDS011;2764;48.794;8.326;2023-02-03T04:58:35;1.58;;;1.45;;
5483;SDS011;2764;48.794;8.326;2023-02-03T04:59:37;2.88;;;1.25;;
5483;SDS011;2764;48.794;8.326;2023-02-03T05:00:39;2.25;;;1.20;;
5483;SDS011;2764;48.794;8.326;2023-02-03T05:01:41;1.70;;;1.60;;
5483;SDS011;2764;48.794;8.326;2023-02-03T05:02:43;1.60;;;0.90;;
5483;SDS011;2764;48.794;8.326;2023-02-03T05:03:44;1.73;;;1.63;;
5483;SDS011;2764;48.794;8.326;2023-02-03T05:04:46;3.80;;;1.23;;
5483;SDS011;2764;48.794;8.326;2023-02-03T05:05:48;1.90;;;1.20;;
5483;SDS011;2764;48.794;8.326;2023-02-03T05:06:50;1.80;;;1.35;;
5483;SDS011;2764;48.794;8.326;2023-02-03T05:07:52;1.60;;;1.08;;
5483;SDS011;2764;48.794;8.326;2023-02-03T05:08:54;1.10;;;1.10;;
5483;SDS011;2764;48.794;8.326;2023-02-03T05:09:56;2.60;;;0.90;;
5483;SDS011;2764;48.794;8.326;2023-02-03T05:10:57;1.58;;;1.25;;
5483;SDS011;2764;48.794;8.326;2023-02-03T05:12:02;2.67;;;1.40;;
5483;SDS011;2764;48.794;8.326;2023-02-03T05:13:04;1.77;;;1.52;;
5483;SDS011;2764;48.794;8.326;2023-02-03T05:14:06;1.17;;;1.05;;
5483;SDS011;2764;48.794;8.326;2023-02-03T05:15:07;2.35;;;1.45;;
5483;SDS011;2764;48.794;8.326;2023-02-03T05:16:09;2.38;;;1.40;;
5483;SDS011;2764;48.794;8.326;2023-02-03T05:17:11;2.10;;;1.40;;
5483;SDS011;2764;48.794;8.326;2023-02-03T05:18:13;4.03;;;1.63;;
5483;SDS011;2764;48.794;8.326;2023-02-03T05:19:15;3.45;;;1.10;;
5483;SDS011;2764;48.794;8.326;2023-02-03T05:20:16;1.77;;;1.15;;
5483;SDS011;2764;48.794;8.326;2023-02-03T05:21:18;4.43;;;1.33;;
5483;SDS011;2764;48.794;8.326;2023-02-03T05:22:20;2.05;;;1.15;;
5483;SDS011;2764;48.794;8.326;2023-02-03T05:23:22;1.80;;;1.70;;
5483;SDS011;2764;48.794;8.326;2023-02-03T05:24:24;1.35;;;1.25;;
5483;SDS011;2764;48.794;8.326;2023-02-03T05:25:27;2.28;;;1.05;;
5483;SDS011;2764;48.794;8.326;2023-02-03T05:26:29;3.30;;;1.10;;
5483;SDS011;2764;48.794;8.326;2023-02-03T05:27:30;1.33;;;1.23;;
5483;SDS011;2764;48.794;8.326;2023-02-03T05:28:32;4.35;;;1.50;;
5483;SDS011;2764;48.794;8.326;2023-02-03T05:29:34;2.30;;;1.70;;
5483;SDS011;2764;48.794;8.326;2023-02-03T05:30:35;1.75;;;1.13;;
5483;SDS011;2764;48.794;8.326;2023-02-03T05:31:37;1.73;;;0.95;;
5483;SDS011;2764;48.794;8.326;2023-02-03T05:32:39;1.23;;;1.10;;
5483;SDS011;2764;48.794;8.326;2023-02-03T05:33:41;2.63;;;1.75;;
5483;SDS011;2764;48.794;8.326;2023-02-03T05:34:42;3.85;;;1.25;;
5483;SDS011;2764;48.794;8.326;2023-02-03T05:35:44;1.65;;;1.30;;
5483;SDS011;2764;48.794;8.326;2023-02-03T05:36:46;1.08;;;1.08;;
5483;SDS011;2764;48.794;8.326;2023-02-03T05:37:47;1.38;;;1.27;;
5483;SDS011;2764;48.794;8.326;2023-02-03T05:38:49;1.40;;;1.30;;
5483;SDS011;2764;48.794;8.326;2023-02-03T05:39:51;2.10;;;1.33;;
5483;SDS011;2764;48.794;8.326;2023-02-03T05:40:52;1.60;;;1.50;;
5483;SDS011;2764;48.794;8.326;2023-02-03T05:42:13;1.20;;;1.10;;
5483;SDS011;2764;48.794;8.326;2023-02-03T05:43:14;3.03;;;1.55;;
5483;SDS011;2764;48.794;8.326;2023-02-03T05:44:16;5.18;;;1.23;;
5483;SDS011;2764;48.794;8.326;2023-02-03T05:45:20;1.23;;;1.10;;
5483;SDS011;2764;48.794;8.326;2023-02-03T05:46:22;6.18;;;1.30;;
5483;SDS011;2764;48.794;8.326;2023-02-03T05:47:24;5.80;;;1.70;;
5483;SDS011;2764;48.794;8.326;2023-02-03T05:48:26;6.53;;;1.40;;
5483;SDS011;2764;48.794;8.326;2023-02-03T05:49:28;1.70;;;1.60;;
5483;SDS011;2764;48.794;8.326;2023-02-03T05:50:30;1.30;;;1.30;;
5483;SDS011;2764;48.794;8.326;2023-02-03T05:51:37;1.88;;;1.27;;
5483;SDS011;2764;48.794;8.326;2023-02-03T05:52:39;1.67;;;1.23;;
5483;SDS011;2764;48.794;8.326;2023-02-03T05:53:41;4.18;;;1.17;;
5483;SDS011;2764;48.794;8.326;2023-02-03T05:54:43;3.60;;;1.35;;
5483;SDS011;2764;48.794;8.326;2023-02-03T05:55:44;1.65;;;0.90;;
5483;SDS011;2764;48.794;8.326;2023-02-03T05:56:46;3.75;;;1.17;;
5483;SDS011;2764;48.794;8.326;2023-02-03T05:57:48;5.10;;;1.50;;
5483;SDS011;2764;48.794;8.326;2023-02-03T05:58:49;3.75;;;1.67;;
5483;SDS011;2764;48.794;8.326;2023-02-03T05:59:54;3.08;;;1.15;;
5483;SDS011;2764;48.794;8.326;2023-02-03T06:00:56;1.60;;;1.35;;
5483;SDS011;2764;48.794;8.326;2023-02-03T06:01:58;3.90;;;1.33;;
5483;SDS011;2764;48.794;8.326;2023-02-03T06:03:00;1.30;;;1.25;;
5483;SDS011;2764;48.794;8.326;2023-02-03T06:04:03;2.00;;;1.08;;
5483;SDS011;2764;48.794;8.326;2023-02-03T06:05:05;5.07;;;1.25;;
5483;SDS011;2764;48.794;8.326;2023-02-03T06:06:08;1.23;;;1.13;;
5483;SDS011;2764;48.794;8.326;2023-02-03T06:07:10;2.58;;;1.55;;
5483;SDS011;2764;48.794;8.326;2023-02-03T06:08:11;3.72;;;1.00;;
5483;SDS011;2764;48.794;8.326;2023-02-03T06:09:13;3.70;;;1.48;;
5483;SDS011;2764;48.794;8.326;2023-02-03T06:10:15;1.90;;;1.30;;
5483;SDS011;2764;48.794;8.326;2023-02-03T06:11:17;1.80;;;1.00;;
5483;SDS011;2764;48.794;8.326;2023-02-03T06:12:19;1.45;;;1.35;;
5483;SDS011;2764;48.794;8.326;2023-02-03T06:13:21;1.67;;;1.23;;
5483;SDS011;2764;48.794;8.326;2023-02-03T06:14:22;2.53;;;1.60;;
5483;SDS011;2764;48.794;8.326;2023-02-03T06:15:24;4.20;;;1.40;;
5483;SDS011;2764;48.794;8.326;2023-02-03T06:16:26;1.50;;;1.40;;
5483;SDS011;2764;48.794;8.326;2023-02-03T06:17:29;2.58;;;1.10;;
5483;SDS011;2764;48.794;8.326;2023-02-03T06:18:31;1.20;;;1.10;;
5483;SDS011;2764;48.794;8.326;2023-02-03T06:19:32;3.42;;;1.40;;
5483;SDS011;2764;48.794;8.326;2023-02-03T06:20:35;4.15;;;1.60;;
5483;SDS011;2764;48.794;8.326;2023-02-03T06:21:36;3.17;;;1.35;;
5483;SDS011;2764;48.794;8.326;2023-02-03T06:22:38;6.05;;;1.30;;
5483;SDS011;2764;48.794;8.326;2023-02-03T06:23:40;1.33;;;1.20;;
5483;SDS011;2764;48.794;8.326;2023-02-03T06:24:42;1.90;;;1.23;;
5483;SDS011;2764;48.794;8.326;2023-02-03T06:25:47;4.53;;;2.28;;
5483;SDS011;2764;48.794;8.326;2023-02-03T06:26:49;11.68;;;8.95;;
5483;SDS011;2764;48.794;8.326;2023-02-03T06:27:51;7.13;;;5.03;;
5483;SDS011;2764;48.794;8.326;2023-02-03T06:28:52;9.57;;;7.10;;
5483;SDS011;2764;48.794;8.326;2023-02-03T06:29:54;6.03;;;5.43;;
5483;SDS011;2764;48.794;8.326;2023-02-03T06:30:56;4.05;;;3.13;;
5483;SDS011;2764;48.794;8.326;2023-02-03T06:31:58;1.95;;;1.20;;
5483;SDS011;2764;48.794;8.326;2023-02-03T06:33:00;3.45;;;3.15;;
5483;SDS011;2764;48.794;8.326;2023-02-03T06:34:02;2.20;;;1.90;;
5483;SDS011;2764;48.794;8.326;2023-02-03T06:35:06;4.68;;;1.75;;
5483;SDS011;2764;48.794;8.326;2023-02-03T06:36:08;4.82;;;1.35;;
5483;SDS011;2764;48.794;8.326;2023-02-03T06:37:10;6.25;;;5.65;;
5483;SDS011;2764;48.794;8.326;2023-02-03T06:38:12;2.90;;;1.95;;
5483;SDS011;2764;48.794;8.326;2023-02-03T06:39:13;4.90;;;2.85;;
5483;SDS011;2764;48.794;8.326;2023-02-03T06:40:17;2.10;;;2.00;;
5483;SDS011;2764;48.794;8.326;2023-02-03T06:41:19;4.45;;;3.50;;
5483;SDS011;2764;48.794;8.326;2023-02-03T06:42:20;2.65;;;1.25;;
5483;SDS011;2764;48.794;8.326;2023-02-03T06:43:22;1.90;;;1.70;;
5483;SDS011;2764;48.794;8.326;2023-02-03T06:44:24;4.80;;;1.77;;
5483;SDS011;2764;48.794;8.326;2023-02-03T06:45:25;1.80;;;1.70;;
5483;SDS011;2764;48.794;8.326;2023-02-03T06:46:27;4.82;;;1.20;;
5483;SDS011;2764;48.794;8.326;2023-02-03T06:47:30;2.55;;;1.77;;
5483;SDS011;2764;48.794;8.326;2023-02-03T06:48:32;6.50;;;1.55;;
5483;SDS011;2764;48.794;8.326;2023-02-03T06:49:34;1.77;;;1.65;;
5483;SDS011;2764;48.794;8.326;2023-02-03T06:50:36;2.55;;;1.52;;
5483;SDS011;2764;48.794;8.326;2023-02-03T06:51:38;1.60;;;1.50;;
5483;SDS011;2764;48.794;8.326;2023-02-03T06:52:40;2.17;;;1.65;;
5483;SDS011;2764;48.794;8.326;2023-02-03T06:53:42;2.38;;;1.35;;
5483;SDS011;2764;48.794;8.326;2023-02-03T06:54:44;2.05;;;1.35;;
5483;SDS011;2764;48.794;8.326;2023-02-03T06:55:46;2.25;;;1.25;;
5483;SDS011;2764;48.794;8.326;2023-02-03T06:56:48;2.70;;;1.30;;
5483;SDS011;2764;48.794;8.326;2023-02-03T06:57:50;4.72;;;1.85;;
5483;SDS011;2764;48.794;8.326;2023-02-03T06:58:52;2.55;;;1.55;;
5483;SDS011;2764;48.794;8.326;2023-02-03T06:59:54;3.17;;;1.60;;
5483;SDS011;2764;48.794;8.326;2023-02-03T07:00:55;2.10;;;1.55;;
5483;SDS011;2764;48.794;8.326;2023-02-03T07:01:57;2.88;;;1.38;;
5483;SDS011;2764;48.794;8.326;2023-02-03T07:03:00;3.60;;;1.67;;